KAZO/AZO METAR and TAF weather

Enter ICAO airport designator
Station Type Date Time Source
KAZO METAR 2022/01/26 06:53 UTC NOAA

KAZO 260653Z AUTO 30006KT 4SM -SN FEW022 OVC044 M11/M14 A3030 RMK AO2 SNB15 SLP277 P0000 T11061139


Station Type Date Time Source
KAZO Decoded METAR 2022/01/26 06:53 UTC NOAA

KALAMAZOO/BATTLE CREEK AIRPORT, MI, United States (KAZO) 42-14N 085-33W 272M
Jan 26, 2022 - 01:53 AM EST / 2022.01.26 0653 UTC
Wind: from the WNW (300 degrees) at 7 MPH (6 KT):0
Visibility: 4 mile(s):0
Sky conditions: overcast
Weather: light snow
Precipitation last hour: A trace
Temperature: 12.9 F (-10.6 C)
Windchill: 3 F (-16 C):1
Dew Point: 7.0 F (-13.9 C)
Relative Humidity: 76%
Pressure (altimeter): 30.3 in. Hg (1026 hPa)
ob: KAZO 260653Z AUTO 30006KT 4SM -SN FEW022 OVC044 M11/M14 A3030 RMK AO2 SNB15 SLP277 P0000 T11061139
cycle: 7

Station Type Date Time Source
KAZO TAF 2022/01/26 06:45 UTC NOAA

TAF KAZO 260543Z 2606/2706 31009KT 5SM -SN FEW022 OVC045
FM261200 23004KT 2SM -SHSN BR OVC035
FM261600 21005KT 4SM -SHSN BKN020 OVC050
FM262100 20007KT P6SM SKC

Example: see airport list